createdAt,value
2022-12-28T00:00:42.613Z,1.50
2022-12-28T00:05:44.895Z,1.85
2022-12-28T00:11:08.690Z,2.00
2022-12-28T00:16:29.040Z,1.70
2022-12-28T00:21:32.097Z,1.38
2022-12-28T00:26:36.158Z,1.50
2022-12-28T00:31:38.471Z,1.80
2022-12-28T00:37:08.702Z,1.80
2022-12-28T00:42:04.767Z,1.50
2022-12-28T00:47:07.335Z,1.63
2022-12-28T00:52:09.536Z,1.65
2022-12-28T00:57:11.863Z,1.70
2022-12-28T01:02:14.189Z,1.52
2022-12-28T01:07:16.830Z,1.73
2022-12-28T01:12:18.970Z,1.50
2022-12-28T01:17:21.135Z,1.55
2022-12-28T01:22:23.486Z,1.52
2022-12-28T01:27:25.776Z,1.52
2022-12-28T01:32:27.967Z,1.65
2022-12-28T01:37:30.720Z,1.40
2022-12-28T01:42:33.333Z,1.65
2022-12-28T01:47:36.563Z,1.50
2022-12-28T01:52:41.122Z,1.88
2022-12-28T01:57:48.741Z,1.70
2022-12-28T02:03:03.399Z,1.80
2022-12-28T02:08:18.884Z,1.67
2022-12-28T02:13:22.719Z,1.50
2022-12-28T02:23:39.777Z,1.63
2022-12-28T02:29:08.519Z,1.52
2022-12-28T02:34:33.041Z,1.58
2022-12-28T02:39:41.984Z,1.60
2022-12-28T02:45:02.673Z,1.70
2022-12-28T02:50:09.024Z,1.80
2022-12-28T02:55:35.706Z,1.52
2022-12-28T03:00:57.840Z,1.60
2022-12-28T03:06:50.415Z,1.80
2022-12-28T03:12:21.119Z,1.70
2022-12-28T03:17:44.957Z,1.80
2022-12-28T03:23:06.194Z,1.40
2022-12-28T03:28:30.878Z,1.63
2022-12-28T03:33:43.451Z,1.48
2022-12-28T03:39:30.006Z,1.98
2022-12-28T03:44:36.132Z,2.00
2022-12-28T03:49:38.825Z,1.30
2022-12-28T03:54:41.768Z,1.60
2022-12-28T03:59:46.826Z,1.45
2022-12-28T04:04:49.274Z,1.42
2022-12-28T04:09:51.727Z,1.45
2022-12-28T04:14:54.173Z,1.58
2022-12-28T04:19:56.465Z,2.08
2022-12-28T04:24:58.725Z,1.50
2022-12-28T04:30:01.063Z,1.67
2022-12-28T04:35:06.566Z,1.48
2022-12-28T04:40:17.762Z,1.67
2022-12-28T04:45:22.116Z,1.70
2022-12-28T04:50:25.864Z,1.83
2022-12-28T04:55:32.624Z,1.63
2022-12-28T05:00:35.786Z,1.58
2022-12-28T05:05:38.292Z,1.50
2022-12-28T05:10:40.530Z,1.55
2022-12-28T05:15:42.723Z,2.08
2022-12-28T05:20:45.037Z,1.58
2022-12-28T05:25:53.730Z,1.35
2022-12-28T05:31:04.302Z,1.48
2022-12-28T05:36:09.782Z,1.50
2022-12-28T05:41:32.252Z,1.40
2022-12-28T05:46:35.532Z,1.63
2022-12-28T05:51:39.802Z,1.70
2022-12-28T05:56:42.482Z,1.50
2022-12-28T06:01:45.616Z,1.60
2022-12-28T06:06:48.538Z,1.50
2022-12-28T06:11:50.685Z,1.27
2022-12-28T06:16:53.004Z,1.55
2022-12-28T06:21:55.155Z,1.73
2022-12-28T06:26:57.343Z,1.60
2022-12-28T06:32:00.572Z,1.50
2022-12-28T06:37:04.467Z,1.60
2022-12-28T06:42:06.738Z,1.55
2022-12-28T06:47:09.086Z,1.40
2022-12-28T06:52:11.223Z,1.45
2022-12-28T06:57:13.433Z,1.45
2022-12-28T07:02:15.715Z,1.50
2022-12-28T07:07:18.013Z,1.75
2022-12-28T07:12:20.133Z,1.70
2022-12-28T07:17:22.435Z,1.77
2022-12-28T07:22:24.625Z,1.98
2022-12-28T07:27:26.862Z,1.30
2022-12-28T07:32:28.977Z,1.50
2022-12-28T07:37:31.218Z,1.60
2022-12-28T07:42:33.347Z,1.90
2022-12-28T07:47:35.703Z,1.98
2022-12-28T07:52:37.852Z,1.75
2022-12-28T07:57:40.164Z,1.52
2022-12-28T08:02:42.332Z,1.70
2022-12-28T08:07:44.421Z,1.70
2022-12-28T08:12:46.623Z,1.60
2022-12-28T08:17:48.767Z,1.70
2022-12-28T08:22:51.113Z,1.85
2022-12-28T08:27:53.258Z,1.70
2022-12-28T08:32:55.408Z,2.10
2022-12-28T08:37:57.636Z,1.50
2022-12-28T08:43:00.195Z,1.90
2022-12-28T08:48:02.372Z,2.00
2022-12-28T08:53:04.572Z,1.75
2022-12-28T08:58:06.721Z,1.77
2022-12-28T09:03:08.947Z,1.80
2022-12-28T09:08:11.126Z,1.65
2022-12-28T09:13:13.441Z,1.52
2022-12-28T09:18:15.612Z,2.13
2022-12-28T09:23:17.894Z,1.60
2022-12-28T09:28:20.029Z,1.65
2022-12-28T09:34:05.458Z,1.50
2022-12-28T09:39:08.577Z,1.60
2022-12-28T09:44:19.621Z,1.60
2022-12-28T09:49:28.068Z,1.35
2022-12-28T09:54:30.516Z,1.73
2022-12-28T09:59:36.199Z,1.60
2022-12-28T10:04:38.474Z,1.67
2022-12-28T10:09:40.749Z,1.42
2022-12-28T10:14:45.763Z,1.63
2022-12-28T10:19:48.640Z,1.63
2022-12-28T10:24:51.125Z,1.80
2022-12-28T10:29:54.773Z,1.70
2022-12-28T10:35:00.671Z,1.40
2022-12-28T10:40:16.968Z,1.58
2022-12-28T10:45:23.039Z,1.65
2022-12-28T10:50:41.938Z,1.75
2022-12-28T10:55:44.419Z,1.40
2022-12-28T11:00:58.696Z,1.50
2022-12-28T11:06:26.321Z,1.38
2022-12-28T11:11:29.939Z,1.35
2022-12-28T11:16:37.600Z,1.40
2022-12-28T11:21:42.583Z,1.17
2022-12-28T11:26:49.301Z,1.60
2022-12-28T11:32:01.133Z,1.50
2022-12-28T11:37:03.540Z,1.30
2022-12-28T11:47:36.498Z,1.40
2022-12-28T11:52:51.347Z,1.50
2022-12-28T11:57:54.845Z,1.50
2022-12-28T12:03:03.147Z,1.70
2022-12-28T12:08:17.658Z,1.30
2022-12-28T12:13:25.673Z,1.40
2022-12-28T12:18:30.248Z,1.40
2022-12-28T12:23:49.010Z,1.42
2022-12-28T12:28:53.081Z,1.30
2022-12-28T12:34:00.797Z,1.50
2022-12-28T12:39:30.693Z,1.40
2022-12-28T12:44:51.169Z,1.70
2022-12-28T12:50:16.354Z,1.25
2022-12-28T12:55:52.549Z,1.30
2022-12-28T13:01:03.478Z,1.50
2022-12-28T13:06:06.899Z,1.50
2022-12-28T13:11:10.988Z,1.27
2022-12-28T13:16:19.360Z,1.30
2022-12-28T13:21:23.152Z,1.15
2022-12-28T13:26:28.723Z,1.13
2022-12-28T13:31:36.587Z,1.40
2022-12-28T13:37:07.916Z,1.13
2022-12-28T13:42:18.442Z,1.23
2022-12-28T13:47:28.518Z,1.30
2022-12-28T13:52:40.505Z,1.20
2022-12-28T13:57:49.988Z,1.17
2022-12-28T14:02:56.414Z,1.10
2022-12-28T14:07:59.691Z,1.25
2022-12-28T14:13:04.478Z,1.23
2022-12-28T14:18:07.235Z,1.30
2022-12-28T14:23:28.317Z,1.40
2022-12-28T14:28:39.454Z,1.20
2022-12-28T14:33:52.722Z,1.30
2022-12-28T14:39:04.186Z,1.20
2022-12-28T14:44:15.552Z,1.20
2022-12-28T14:49:29.080Z,1.30
2022-12-28T14:54:32.779Z,1.48
2022-12-28T14:59:38.350Z,1.15
2022-12-28T15:04:42.278Z,1.35
2022-12-28T15:09:46.056Z,1.30
2022-12-28T15:24:52.615Z,1.13
2022-12-28T15:30:05.524Z,1.25
2022-12-28T15:35:08.999Z,1.10
2022-12-28T15:40:11.529Z,1.20
2022-12-28T15:45:14.496Z,1.40
2022-12-28T15:50:16.818Z,1.27
2022-12-28T15:55:19.084Z,1.63
2022-12-28T16:00:21.764Z,1.27
2022-12-28T16:05:23.978Z,1.23
2022-12-28T16:10:26.315Z,1.10
2022-12-28T16:15:28.689Z,1.20
2022-12-28T16:20:30.927Z,1.10
2022-12-28T16:25:33.089Z,0.90
2022-12-28T16:30:48.169Z,1.20
2022-12-28T16:35:54.562Z,0.98
2022-12-28T16:41:01.415Z,1.15
2022-12-28T16:46:07.404Z,1.00
2022-12-28T16:51:10.440Z,0.95
2022-12-28T16:56:12.885Z,1.25
2022-12-28T17:01:15.217Z,1.30
2022-12-28T17:06:17.943Z,1.20
2022-12-28T17:11:20.142Z,1.17
2022-12-28T17:16:22.372Z,1.10
2022-12-28T17:21:24.661Z,1.10
2022-12-28T17:26:27.449Z,1.17
2022-12-28T17:31:29.809Z,1.30
2022-12-28T17:36:32.072Z,1.30
2022-12-28T17:41:34.323Z,0.98
2022-12-28T17:46:40.950Z,1.10
2022-12-28T17:51:43.856Z,1.20
2022-12-28T17:56:46.158Z,1.23
2022-12-28T18:01:48.426Z,1.10
2022-12-28T18:06:50.640Z,0.90
2022-12-28T18:11:53.048Z,1.00
2022-12-28T18:16:56.104Z,1.35
2022-12-28T18:21:58.401Z,1.00
2022-12-28T18:27:00.567Z,1.02
2022-12-28T18:32:02.850Z,1.38
2022-12-28T18:37:05.088Z,1.20
2022-12-28T18:42:07.297Z,1.10
2022-12-28T18:47:09.711Z,1.00
2022-12-28T18:52:12.067Z,1.00
2022-12-28T18:57:14.302Z,1.20
2022-12-28T19:02:19.715Z,1.08
2022-12-28T19:07:22.220Z,1.05
2022-12-28T19:12:24.392Z,1.30
2022-12-28T19:17:26.613Z,1.30
2022-12-28T19:22:30.103Z,1.30
2022-12-28T19:27:32.257Z,1.25
2022-12-28T19:32:34.457Z,1.05
2022-12-28T19:37:37.596Z,1.20
2022-12-28T19:42:39.674Z,1.38
2022-12-28T19:47:42.122Z,1.15
2022-12-28T19:52:44.343Z,1.50
2022-12-28T19:57:46.508Z,1.20
2022-12-28T20:02:48.924Z,1.23
2022-12-28T20:07:51.138Z,1.20
2022-12-28T20:12:53.371Z,1.35
2022-12-28T20:17:55.639Z,1.05
2022-12-28T20:22:57.929Z,1.02
2022-12-28T20:28:00.161Z,1.00
2022-12-28T20:33:02.346Z,1.27
2022-12-28T20:38:04.579Z,1.20
2022-12-28T20:43:25.026Z,1.20
2022-12-28T20:48:27.895Z,1.00
2022-12-28T20:53:30.179Z,1.25
2022-12-28T20:58:32.463Z,1.15
2022-12-28T21:03:34.704Z,1.10
2022-12-28T21:08:36.956Z,1.10
2022-12-28T21:13:43.874Z,0.90
2022-12-28T21:18:46.993Z,0.90
2022-12-28T21:23:49.489Z,1.15
2022-12-28T21:28:51.773Z,0.90
2022-12-28T21:33:57.049Z,0.90
2022-12-28T21:38:59.991Z,1.25
2022-12-28T21:44:02.222Z,0.90
2022-12-28T21:49:05.582Z,1.40
2022-12-28T21:54:13.085Z,1.00
2022-12-28T21:59:15.368Z,1.13
2022-12-28T22:04:41.719Z,0.90
2022-12-28T22:10:02.834Z,1.00
2022-12-28T22:15:26.075Z,1.08
2022-12-28T22:20:30.187Z,0.93
2022-12-28T22:25:32.802Z,1.10
2022-12-28T22:30:36.951Z,0.98
2022-12-28T22:35:39.147Z,0.98
2022-12-28T22:40:41.476Z,1.00
2022-12-28T22:45:43.756Z,0.82
2022-12-28T22:50:45.877Z,1.08
2022-12-28T22:55:58.945Z,1.15
2022-12-28T23:01:18.620Z,1.17
2022-12-28T23:06:21.393Z,1.10
2022-12-28T23:11:42.675Z,0.98
2022-12-28T23:16:44.956Z,1.00
2022-12-28T23:22:05.723Z,0.85
2022-12-28T23:27:22.245Z,1.10
2022-12-28T23:32:24.471Z,0.80
2022-12-28T23:37:26.890Z,1.20
2022-12-28T23:42:29.045Z,1.08
2022-12-28T23:47:31.701Z,1.00
2022-12-28T23:52:34.312Z,0.90
2022-12-28T23:57:37.288Z,1.13
